createdAt,value
2017-03-09T00:00:53.506Z,9.29
2017-03-09T00:02:07.009Z,9.42
2017-03-09T00:03:21.100Z,9.34
2017-03-09T00:04:36.276Z,9.4
2017-03-09T00:05:49.762Z,9.37
2017-03-09T00:07:03.260Z,9.37
2017-03-09T00:08:17.495Z,9.39
2017-03-09T00:09:31.516Z,9.34
2017-03-09T00:10:46.295Z,9.29
2017-03-09T00:11:59.834Z,9.36
2017-03-09T00:13:13.811Z,9.29
2017-03-09T00:14:27.399Z,9.39
2017-03-09T00:15:41.357Z,9.39
2017-03-09T00:16:55.225Z,9.33
2017-03-09T00:18:09.131Z,9.4
2017-03-09T00:19:23.532Z,9.37
2017-03-09T00:20:37.748Z,9.37
2017-03-09T00:21:51.256Z,9.39
2017-03-09T00:23:04.760Z,9.31
2017-03-09T00:24:19.062Z,9.42
2017-03-09T00:25:33.067Z,9.47
2017-03-09T00:26:46.977Z,9.49
2017-03-09T00:28:00.624Z,9.49
2017-03-09T00:29:14.528Z,9.45
2017-03-09T00:30:29.049Z,9.42
2017-03-09T00:31:42.554Z,9.47
2017-03-09T00:32:56.744Z,9.45
2017-03-09T00:34:11.124Z,9.42
2017-03-09T00:35:25.462Z,9.37
2017-03-09T00:36:38.960Z,9.42
2017-03-09T00:37:53.392Z,9.37
2017-03-09T00:39:07.614Z,9.34
2017-03-09T00:40:21.589Z,9.36
2017-03-09T00:41:35.511Z,9.34
2017-03-09T00:42:49.764Z,9.36
2017-03-09T00:44:04.440Z,9.39
2017-03-09T00:45:18.676Z,9.37
2017-03-09T00:46:32.347Z,9.44
2017-03-09T00:47:45.899Z,9.48
2017-03-09T00:48:59.413Z,9.48
2017-03-09T00:50:15.651Z,9.45
2017-03-09T00:51:29.877Z,9.48
2017-03-09T00:52:44.253Z,9.44
2017-03-09T00:53:58.372Z,9.42
2017-03-09T00:55:12.761Z,9.47
2017-03-09T00:56:26.906Z,9.37
2017-03-09T00:57:40.700Z,9.39
2017-03-09T00:58:54.762Z,9.4
2017-03-09T01:00:08.292Z,9.42
2017-03-09T01:01:22.399Z,9.4
2017-03-09T01:02:36.919Z,9.4
2017-03-09T01:03:50.804Z,9.31
2017-03-09T01:05:04.712Z,9.33
2017-03-09T01:06:18.684Z,9.37
2017-03-09T01:07:32.255Z,9.33
2017-03-09T01:08:45.801Z,9.37
2017-03-09T01:09:59.994Z,9.34
2017-03-09T01:11:13.438Z,9.39
2017-03-09T01:12:27.003Z,9.3
2017-03-09T01:13:40.481Z,9.31
2017-03-09T01:14:54.402Z,9.37
2017-03-09T01:16:08.534Z,9.34
2017-03-09T01:17:22.157Z,9.47
2017-03-09T01:18:36.079Z,9.34
2017-03-09T01:19:49.544Z,9.36
2017-03-09T01:21:03.014Z,9.39
2017-03-09T01:22:17.704Z,9.44
2017-03-09T01:23:31.235Z,9.48
2017-03-09T01:25:10.450Z,9.49
2017-03-09T01:26:24.827Z,9.52
2017-03-09T01:27:38.821Z,9.44
2017-03-09T01:28:52.303Z,9.42
2017-03-09T01:30:06.628Z,9.44
2017-03-09T01:31:20.172Z,9.36
2017-03-09T01:32:34.212Z,9.36
2017-03-09T01:33:48.078Z,9.4
2017-03-09T01:35:01.643Z,9.37
2017-03-09T01:36:15.200Z,9.31
2017-03-09T01:37:29.392Z,9.26
2017-03-09T01:38:43.472Z,9.24
2017-03-09T01:39:58.518Z,9.29
2017-03-09T01:41:12.449Z,9.34
2017-03-09T01:42:25.957Z,9.37
2017-03-09T01:43:39.875Z,9.39
2017-03-09T01:44:53.377Z,9.4
2017-03-09T01:46:07.313Z,9.37
2017-03-09T01:47:21.211Z,9.44
2017-03-09T01:48:34.754Z,9.47
2017-03-09T01:49:48.416Z,9.47
2017-03-09T01:51:02.341Z,9.49
2017-03-09T01:52:16.368Z,9.49
2017-03-09T01:53:29.916Z,9.48
2017-03-09T01:54:43.789Z,9.47
2017-03-09T01:56:00.845Z,9.51
2017-03-09T01:57:22.171Z,9.49
2017-03-09T01:58:37.561Z,9.69
2017-03-09T01:59:53.926Z,9.76
2017-03-09T02:01:11.664Z,9.81
2017-03-09T02:02:25.121Z,9.67
2017-03-09T02:03:39.058Z,9.63
2017-03-09T02:04:52.496Z,9.62
2017-03-09T02:06:05.952Z,9.54
2017-03-09T02:07:21.596Z,9.56
2017-03-09T02:08:35.234Z,9.51
2017-03-09T02:09:49.092Z,9.48
2017-03-09T02:11:02.540Z,9.49
2017-03-09T02:12:16.017Z,9.59
2017-03-09T02:13:29.430Z,9.54
2017-03-09T02:14:42.916Z,9.55
2017-03-09T02:15:56.641Z,9.45
2017-03-09T02:17:10.062Z,9.4
2017-03-09T02:18:23.505Z,9.36
2017-03-09T02:19:37.069Z,9.3
2017-03-09T02:20:50.504Z,9.37
2017-03-09T02:22:04.258Z,9.37
2017-03-09T02:23:18.175Z,9.33
2017-03-09T02:24:31.716Z,9.29
2017-03-09T02:25:45.188Z,9.12
2017-03-09T02:26:58.670Z,9.03
2017-03-09T02:28:12.397Z,9.13
2017-03-09T02:29:26.249Z,9.31
2017-03-09T02:30:40.318Z,9.22
2017-03-09T02:31:54.595Z,9.15
2017-03-09T02:33:08.053Z,9.09
2017-03-09T02:34:22.148Z,9.19
2017-03-09T02:35:36.091Z,9.31
2017-03-09T02:36:49.623Z,9.36
2017-03-09T02:38:03.104Z,9.31
2017-03-09T02:39:16.533Z,9.33
2017-03-09T02:40:30.286Z,9.36
2017-03-09T02:41:43.942Z,9.36
2017-03-09T02:42:57.697Z,9.39
2017-03-09T02:44:11.568Z,9.47
2017-03-09T02:45:25.048Z,9.39
2017-03-09T02:46:38.965Z,9.33
2017-03-09T02:47:52.410Z,9.39
2017-03-09T02:49:05.891Z,9.29
2017-03-09T02:50:19.331Z,9.27
2017-03-09T02:51:32.877Z,9.22
2017-03-09T02:52:47.421Z,9.18
2017-03-09T02:54:00.894Z,9.15
2017-03-09T02:55:14.343Z,9.13
2017-03-09T02:56:28.320Z,9.16
2017-03-09T02:57:41.707Z,9.08
2017-03-09T02:58:55.857Z,9.11
2017-03-09T03:00:09.304Z,9.19
2017-03-09T03:01:23.173Z,9.31
2017-03-09T03:02:36.822Z,9.29
2017-03-09T03:03:50.643Z,9.37
2017-03-09T03:05:04.387Z,9.37
2017-03-09T03:06:17.820Z,9.4
2017-03-09T03:07:31.287Z,9.48
2017-03-09T03:08:45.191Z,9.52
2017-03-09T03:09:58.691Z,9.59
2017-03-09T03:11:12.417Z,9.56
2017-03-09T03:12:25.896Z,9.52
2017-03-09T03:13:39.335Z,9.49
2017-03-09T03:14:52.762Z,9.49
2017-03-09T03:16:06.235Z,9.55
2017-03-09T03:17:19.972Z,9.47
2017-03-09T03:18:33.446Z,9.39
2017-03-09T03:19:46.860Z,9.37
2017-03-09T03:21:00.275Z,9.37
2017-03-09T03:22:14.134Z,9.39
2017-03-09T03:23:30.044Z,9.42
2017-03-09T03:24:43.509Z,9.48
2017-03-09T03:25:56.934Z,9.47
2017-03-09T03:27:10.816Z,9.49
2017-03-09T03:28:25.609Z,9.47
2017-03-09T03:29:39.393Z,9.51
2017-03-09T03:30:52.853Z,9.37
2017-03-09T03:32:06.713Z,9.27
2017-03-09T03:33:20.192Z,9.19
2017-03-09T03:34:33.865Z,9.16
2017-03-09T03:35:47.650Z,9.03
2017-03-09T03:37:01.532Z,8.92
2017-03-09T03:38:14.997Z,8.93
2017-03-09T03:39:28.551Z,8.95
2017-03-09T03:40:42.514Z,8.92
2017-03-09T03:41:56.368Z,8.92
2017-03-09T03:43:09.858Z,8.92
2017-03-09T03:44:23.575Z,8.95
2017-03-09T03:45:37.261Z,9.08
2017-03-09T03:46:50.781Z,9.09
2017-03-09T03:48:04.669Z,9.08
2017-03-09T03:49:18.374Z,9
2017-03-09T03:50:32.067Z,9.08
2017-03-09T03:51:46.087Z,9.13
2017-03-09T03:52:59.767Z,9.16
2017-03-09T03:54:13.729Z,9.18
2017-03-09T03:55:34.448Z,9.19
2017-03-09T03:56:48.491Z,9.21
2017-03-09T03:58:02.131Z,9.21
2017-03-09T03:59:16.239Z,9.22
2017-03-09T04:00:30.111Z,9.18
2017-03-09T04:01:43.626Z,9.26
2017-03-09T04:02:57.118Z,9.37
2017-03-09T04:04:11.439Z,9.31
2017-03-09T04:05:24.922Z,9.36
2017-03-09T04:06:38.633Z,9.36
2017-03-09T04:07:52.221Z,9.37
2017-03-09T04:09:06.555Z,9.31
2017-03-09T04:10:20.456Z,9.19
2017-03-09T04:11:33.967Z,9.11
2017-03-09T04:12:47.755Z,9.11
2017-03-09T04:14:01.422Z,9.03
2017-03-09T04:15:15.298Z,8.99
2017-03-09T04:16:29.002Z,8.87
2017-03-09T04:17:43.396Z,8.93
2017-03-09T04:18:57.598Z,8.9
2017-03-09T04:20:11.076Z,8.86
2017-03-09T04:24:39.482Z,8.95
2017-03-09T04:25:53.250Z,8.95
2017-03-09T04:27:07.550Z,9
2017-03-09T04:28:21.018Z,9.02
2017-03-09T04:29:34.621Z,8.9
2017-03-09T04:30:48.047Z,8.92
2017-03-09T04:32:02.372Z,8.97
2017-03-09T04:33:15.903Z,8.95
2017-03-09T04:34:30.125Z,8.97
2017-03-09T04:35:44.263Z,9.11
2017-03-09T04:36:57.835Z,9
2017-03-09T04:38:12.377Z,9.05
2017-03-09T04:39:26.279Z,9.12
2017-03-09T04:40:39.851Z,9.08
2017-03-09T04:41:55.980Z,9.03
2017-03-09T04:43:09.440Z,8.99
2017-03-09T04:44:23.575Z,8.97
2017-03-09T04:45:37.060Z,8.99
2017-03-09T04:46:50.543Z,8.93
2017-03-09T04:48:04.412Z,8.92
2017-03-09T04:49:17.919Z,8.96
2017-03-09T04:50:32.216Z,8.96
2017-03-09T04:51:46.370Z,9.03
2017-03-09T04:52:59.845Z,9.02
2017-03-09T04:54:13.410Z,9.02
2017-03-09T04:55:27.751Z,9.02
2017-03-09T04:56:42.318Z,9.11
2017-03-09T04:57:55.883Z,9.19
2017-03-09T04:59:09.394Z,9.12
2017-03-09T05:00:22.885Z,9.16
2017-03-09T05:01:36.972Z,9.08
2017-03-09T05:02:51.439Z,9.05
2017-03-09T05:04:04.998Z,8.92
2017-03-09T05:05:18.962Z,9
2017-03-09T05:06:32.607Z,9
2017-03-09T05:07:46.286Z,9.16
2017-03-09T05:09:00.472Z,9.21
2017-03-09T05:10:13.942Z,9.27
2017-03-09T05:11:27.796Z,9.21
2017-03-09T05:12:41.285Z,9.29
2017-03-09T05:13:54.732Z,9.18
2017-03-09T05:15:08.512Z,9.26
2017-03-09T05:16:21.931Z,9.24
2017-03-09T05:17:35.426Z,9.34
2017-03-09T05:18:48.925Z,9.36
2017-03-09T05:20:02.849Z,9.48
2017-03-09T05:21:16.579Z,9.44
2017-03-09T05:22:30.605Z,9.48
2017-03-09T05:23:44.442Z,9.54
2017-03-09T05:24:57.934Z,9.51
2017-03-09T05:26:11.370Z,9.56
2017-03-09T05:27:25.387Z,9.54
2017-03-09T05:28:38.974Z,9.49
2017-03-09T05:29:52.471Z,9.47
2017-03-09T05:31:05.974Z,9.52
2017-03-09T05:32:19.573Z,9.63
2017-03-09T05:33:33.807Z,9.95
2017-03-09T05:34:47.770Z,10.06
2017-03-09T05:36:01.240Z,10.23
2017-03-09T05:37:15.245Z,10.17
2017-03-09T05:38:28.724Z,9.9
2017-03-09T05:40:40.182Z,9.69
2017-03-09T05:43:23.431Z,9.62
2017-03-09T05:48:56.573Z,9.56
2017-03-09T05:50:10.068Z,9.56
2017-03-09T05:51:23.518Z,9.58
2017-03-09T05:52:36.936Z,9.54
2017-03-09T05:53:50.500Z,9.66
2017-03-09T05:55:03.938Z,9.73
2017-03-09T05:56:18.488Z,9.66
2017-03-09T05:57:31.946Z,9.73
2017-03-09T05:58:45.368Z,9.62
2017-03-09T05:59:58.832Z,9.74
2017-03-09T06:01:12.313Z,9.66
2017-03-09T06:02:26.176Z,9.55
2017-03-09T06:03:41.816Z,9.55
2017-03-09T06:04:55.339Z,9.51
2017-03-09T06:06:08.788Z,9.47
2017-03-09T06:07:22.641Z,9.42
2017-03-09T06:08:36.369Z,9.47
2017-03-09T06:09:50.530Z,9.45
2017-03-09T06:11:05.376Z,9.58
2017-03-09T06:12:18.787Z,9.52
2017-03-09T06:13:32.218Z,9.54
2017-03-09T06:14:46.238Z,9.51
2017-03-09T06:16:00.582Z,9.36
2017-03-09T06:17:14.018Z,9.36
2017-03-09T06:18:27.570Z,9.37
2017-03-09T06:19:40.985Z,9.37
2017-03-09T06:20:55.608Z,9.47
2017-03-09T06:22:09.100Z,9.48
2017-03-09T06:23:22.574Z,9.49
2017-03-09T06:24:36.955Z,9.49
2017-03-09T06:25:50.497Z,9.51
2017-03-09T06:27:04.340Z,9.42
2017-03-09T06:28:17.870Z,9.55
2017-03-09T06:29:31.728Z,9.63
2017-03-09T06:30:45.211Z,9.55
2017-03-09T06:31:58.730Z,9.63
2017-03-09T06:33:12.495Z,9.59
2017-03-09T06:34:26.342Z,9.64
2017-03-09T06:35:39.914Z,9.67
2017-03-09T06:36:53.456Z,9.64
2017-03-09T06:38:07.736Z,9.64
2017-03-09T06:39:21.883Z,9.81
2017-03-09T06:40:35.534Z,9.74
2017-03-09T06:41:49.198Z,9.82
2017-03-09T06:43:03.100Z,9.74
2017-03-09T06:44:16.941Z,9.85
2017-03-09T06:45:30.794Z,9.88
2017-03-09T06:46:44.825Z,9.87
2017-03-09T06:47:58.265Z,9.95
2017-03-09T06:49:11.727Z,9.9
2017-03-09T06:50:25.606Z,9.85
2017-03-09T06:51:39.472Z,9.88
2017-03-09T06:53:25.130Z,9.85
2017-03-09T06:54:38.574Z,9.81
2017-03-09T06:55:52.035Z,9.74
2017-03-09T06:57:05.572Z,9.69
2017-03-09T06:58:19.073Z,9.77
2017-03-09T06:59:35.563Z,9.84
2017-03-09T07:00:49.485Z,9.81
2017-03-09T07:02:03.475Z,9.85
2017-03-09T07:03:17.375Z,9.87
2017-03-09T07:04:30.819Z,9.91
2017-03-09T07:05:44.477Z,9.97
2017-03-09T07:06:58.023Z,9.87
2017-03-09T07:08:11.601Z,9.76
2017-03-09T07:09:25.045Z,9.85
2017-03-09T07:10:38.486Z,9.87
2017-03-09T07:11:52.014Z,9.85
2017-03-09T07:13:05.910Z,9.94
2017-03-09T07:14:19.339Z,9.92
2017-03-09T07:15:33.233Z,9.95
2017-03-09T07:16:46.703Z,10
2017-03-09T07:18:00.201Z,10.03
2017-03-09T07:19:14.478Z,10.05
2017-03-09T07:20:30.133Z,10.1
2017-03-09T07:21:43.573Z,10.09
2017-03-09T07:22:57.036Z,9.99
2017-03-09T07:24:10.676Z,10.02
2017-03-09T07:25:24.956Z,10.1
2017-03-09T07:26:38.444Z,10.06
2017-03-09T07:27:51.930Z,10.13
2017-03-09T07:29:05.455Z,10.17
2017-03-09T07:30:18.928Z,10.18
2017-03-09T07:31:32.364Z,10.2
2017-03-09T07:32:45.807Z,10.18
2017-03-09T07:33:59.400Z,10.24
2017-03-09T07:35:12.898Z,10.21
2017-03-09T07:36:26.750Z,10.24
2017-03-09T07:37:40.433Z,10.39
2017-03-09T07:38:54.271Z,10.39
2017-03-09T07:40:07.836Z,10.38
2017-03-09T07:41:21.309Z,10.43
2017-03-09T07:42:34.761Z,10.49
2017-03-09T07:43:48.269Z,10.53
2017-03-09T07:45:02.209Z,10.51
2017-03-09T07:46:15.645Z,10.59
2017-03-09T07:47:29.099Z,10.58
2017-03-09T07:48:42.572Z,10.59
2017-03-09T07:49:56.128Z,10.59
2017-03-09T07:51:09.599Z,10.59
2017-03-09T07:52:23.487Z,10.64
2017-03-09T07:53:36.973Z,10.64
2017-03-09T07:54:50.606Z,10.68
2017-03-09T07:56:04.169Z,10.69
2017-03-09T07:57:17.628Z,10.64
2017-03-09T07:58:31.096Z,10.72
2017-03-09T07:59:44.549Z,10.59
2017-03-09T08:00:58.136Z,10.53
2017-03-09T08:02:11.588Z,10.51
2017-03-09T08:03:25.033Z,10.53
2017-03-09T08:04:38.430Z,10.58
2017-03-09T08:05:52.091Z,10.67
2017-03-09T08:07:05.501Z,10.59
2017-03-09T08:08:20.440Z,10.62
2017-03-09T08:09:34.422Z,10.67
2017-03-09T08:10:49.631Z,10.49
2017-03-09T08:12:06.280Z,10.49
2017-03-09T08:13:20.235Z,10.62
2017-03-09T08:14:36.546Z,10.53
2017-03-09T08:15:53.126Z,10.62
2017-03-09T08:17:51.357Z,10.59
2017-03-09T08:19:04.783Z,10.61
2017-03-09T08:20:18.245Z,10.64
2017-03-09T08:21:31.780Z,10.65
2017-03-09T08:22:45.616Z,10.71
2017-03-09T08:25:03.259Z,10.79
2017-03-09T08:26:16.767Z,10.65
2017-03-09T08:27:30.316Z,10.68
2017-03-09T08:28:43.720Z,10.68
2017-03-09T08:29:57.154Z,10.69
2017-03-09T08:31:11.454Z,10.71
2017-03-09T08:32:25.572Z,10.68
2017-03-09T08:33:39.025Z,10.65
2017-03-09T08:34:52.875Z,10.76
2017-03-09T08:36:06.314Z,10.84
2017-03-09T08:37:20.152Z,10.72
2017-03-09T08:39:48.960Z,10.98
2017-03-09T08:41:02.435Z,10.75
2017-03-09T08:42:15.882Z,10.76
2017-03-09T08:43:29.386Z,10.77
2017-03-09T08:44:42.838Z,10.82
2017-03-09T08:45:56.311Z,10.72
2017-03-09T08:47:09.780Z,10.82
2017-03-09T08:48:23.292Z,10.76
2017-03-09T08:49:36.735Z,10.68
2017-03-09T08:50:50.601Z,10.82
2017-03-09T08:52:04.046Z,10.8
2017-03-09T08:53:17.562Z,10.84
2017-03-09T08:54:31.111Z,10.89
2017-03-09T08:55:44.614Z,10.94
2017-03-09T08:56:58.128Z,10.92
2017-03-09T08:58:11.968Z,11.04
2017-03-09T08:59:25.859Z,10.95
2017-03-09T09:00:39.357Z,10.95
2017-03-09T09:01:52.873Z,10.92
2017-03-09T09:03:06.318Z,10.95
2017-03-09T09:04:20.042Z,10.9
2017-03-09T09:05:33.488Z,10.9
2017-03-09T09:06:46.930Z,10.92
2017-03-09T09:08:00.793Z,10.94
2017-03-09T09:09:14.646Z,10.89
2017-03-09T09:10:28.079Z,10.94
2017-03-09T09:11:41.541Z,10.9
2017-03-09T09:12:56.010Z,10.92
2017-03-09T09:14:09.436Z,10.89
2017-03-09T09:15:22.864Z,10.95
2017-03-09T09:16:36.763Z,10.95
2017-03-09T09:17:50.320Z,10.95
2017-03-09T09:19:04.229Z,10.87
2017-03-09T09:20:17.657Z,10.92
2017-03-09T09:21:31.109Z,10.86
2017-03-09T09:22:44.943Z,10.89
2017-03-09T09:23:58.709Z,10.89
2017-03-09T09:25:12.266Z,10.75
2017-03-09T09:26:25.725Z,10.67
2017-03-09T09:27:39.143Z,10.72
2017-03-09T09:28:53.534Z,10.84
2017-03-09T09:30:07.077Z,10.86
2017-03-09T09:31:20.796Z,10.9
2017-03-09T09:32:34.262Z,10.87
2017-03-09T09:33:47.807Z,10.95
2017-03-09T09:35:01.269Z,10.83
2017-03-09T09:36:14.698Z,10.72
2017-03-09T09:37:28.711Z,10.83
2017-03-09T09:38:42.607Z,10.77
2017-03-09T09:39:56.133Z,10.82
2017-03-09T09:41:09.590Z,10.8
2017-03-09T09:42:23.067Z,10.9
2017-03-09T09:43:37.381Z,10.82
2017-03-09T09:44:50.962Z,10.87
2017-03-09T09:46:04.841Z,10.92
2017-03-09T09:47:18.302Z,10.89
2017-03-09T09:48:32.194Z,10.9
2017-03-09T09:49:46.223Z,10.94
2017-03-09T09:51:00.189Z,10.92
2017-03-09T09:52:13.650Z,10.94
2017-03-09T09:53:27.959Z,10.92
2017-03-09T09:54:43.676Z,11.04
2017-03-09T09:55:57.643Z,10.98
2017-03-09T09:57:11.121Z,11.05
2017-03-09T09:58:24.568Z,11.22
2017-03-09T09:59:38.066Z,11.33
2017-03-09T10:00:51.626Z,11.41
2017-03-09T10:02:05.495Z,11.49
2017-03-09T10:03:19.007Z,11.6
2017-03-09T10:04:32.519Z,11.56
2017-03-09T10:05:46.161Z,11.53
2017-03-09T10:06:59.641Z,11.52
2017-03-09T10:08:13.931Z,11.51
2017-03-09T10:09:27.842Z,11.51
2017-03-09T10:10:42.046Z,11.6
2017-03-09T10:11:55.657Z,11.56
2017-03-09T10:13:09.220Z,11.55
2017-03-09T10:14:23.157Z,11.73
2017-03-09T10:15:36.660Z,11.76
2017-03-09T10:16:50.692Z,11.62
2017-03-09T10:18:04.621Z,11.59
2017-03-09T10:19:18.950Z,11.51
2017-03-09T10:20:32.475Z,11.53
2017-03-09T10:21:46.076Z,11.44
2017-03-09T10:22:59.622Z,11.48
2017-03-09T10:24:13.633Z,11.51
2017-03-09T10:25:27.897Z,11.65
2017-03-09T10:26:42.093Z,11.62
2017-03-09T10:27:55.726Z,11.77
2017-03-09T10:29:09.271Z,11.68
2017-03-09T10:30:22.820Z,11.6
2017-03-09T10:31:36.751Z,11.67
2017-03-09T10:32:51.609Z,11.62
2017-03-09T10:34:05.555Z,11.63
2017-03-09T10:35:19.523Z,11.68
2017-03-09T10:36:33.611Z,11.83
2017-03-09T10:37:47.557Z,11.97
2017-03-09T10:39:01.045Z,12.08
2017-03-09T10:40:14.968Z,11.99
2017-03-09T10:41:28.477Z,11.96
2017-03-09T10:42:42.561Z,12.12
2017-03-09T10:43:56.445Z,12.15
2017-03-09T10:45:09.972Z,12.12
2017-03-09T10:46:23.888Z,12.23
2017-03-09T10:47:37.587Z,12.29
2017-03-09T10:48:51.179Z,12.45
2017-03-09T10:50:05.127Z,12.55
2017-03-09T10:51:19.465Z,12.69
2017-03-09T10:52:32.944Z,12.66
2017-03-09T10:53:46.515Z,12.68
2017-03-09T10:55:00.405Z,12.73
2017-03-09T10:56:14.191Z,12.78
2017-03-09T10:57:28.114Z,12.69
2017-03-09T10:58:41.744Z,12.68
2017-03-09T10:59:55.604Z,12.66
2017-03-09T11:01:09.167Z,12.61
2017-03-09T11:02:22.944Z,12.68
2017-03-09T11:03:36.931Z,12.68
2017-03-09T11:04:50.862Z,12.57
2017-03-09T11:06:05.194Z,12.51
2017-03-09T11:07:19.546Z,12.54
2017-03-09T11:08:33.830Z,12.66
2017-03-09T11:09:47.876Z,12.58
2017-03-09T11:11:03.639Z,12.78
2017-03-09T11:12:17.307Z,12.76
2017-03-09T11:13:30.818Z,12.88
2017-03-09T11:14:44.742Z,12.88
2017-03-09T11:15:58.644Z,12.98
2017-03-09T11:17:12.169Z,13.12
2017-03-09T11:18:26.512Z,13.2
2017-03-09T11:19:39.963Z,13.33
2017-03-09T11:20:54.101Z,13.4
2017-03-09T11:22:07.930Z,13.3
2017-03-09T11:23:21.419Z,13.49
2017-03-09T11:24:34.948Z,13.65
2017-03-09T11:25:48.966Z,13.8
2017-03-09T11:27:03.002Z,13.93
2017-03-09T11:28:16.961Z,14.2
2017-03-09T11:29:30.877Z,14.16
2017-03-09T11:30:44.876Z,14.05
2017-03-09T11:31:59.151Z,14.16
2017-03-09T11:33:12.861Z,14.18
2017-03-09T11:34:26.902Z,14.3
2017-03-09T11:35:40.385Z,14.28
2017-03-09T11:36:53.953Z,14.48
2017-03-09T11:38:07.473Z,14.53
2017-03-09T11:39:21.773Z,14.52
2017-03-09T11:40:35.270Z,14.67
2017-03-09T11:41:49.263Z,14.73
2017-03-09T11:43:02.720Z,14.77
2017-03-09T11:44:17.265Z,14.62
2017-03-09T11:45:30.735Z,14.41
2017-03-09T11:46:44.333Z,14.26
2017-03-09T11:47:57.830Z,14.18
2017-03-09T11:49:11.773Z,14.18
2017-03-09T11:50:25.424Z,14.34
2017-03-09T11:51:38.872Z,14.2
2017-03-09T11:52:52.428Z,14.31
2017-03-09T11:54:06.338Z,14.33
2017-03-09T11:55:19.871Z,14.4
2017-03-09T11:56:33.780Z,14.34
2017-03-09T11:57:47.828Z,14.33
2017-03-09T11:59:01.771Z,14.38
2017-03-09T12:00:15.328Z,14.41
2017-03-09T12:01:29.315Z,14.68
2017-03-09T12:02:42.962Z,14.55
2017-03-09T12:03:56.428Z,14.4
2017-03-09T12:05:09.897Z,14.38
2017-03-09T12:06:23.904Z,14.51
2017-03-09T12:07:37.374Z,14.62
2017-03-09T12:08:50.910Z,14.51
2017-03-09T12:10:04.782Z,14.52
2017-03-09T12:11:18.697Z,14.63
2017-03-09T12:12:32.165Z,14.59
2017-03-09T12:13:45.736Z,14.51
2017-03-09T12:14:59.209Z,14.34
2017-03-09T12:16:13.138Z,14.44
2017-03-09T12:17:26.643Z,14.52
2017-03-09T12:18:40.668Z,14.4
2017-03-09T12:19:54.650Z,14.4
2017-03-09T12:21:08.150Z,14.53
2017-03-09T12:22:22.097Z,14.38
2017-03-09T12:23:35.623Z,14.45
2017-03-09T12:24:49.628Z,14.45
2017-03-09T12:26:03.096Z,14.53
2017-03-09T12:27:18.803Z,14.52
2017-03-09T12:28:32.746Z,14.73
2017-03-09T12:29:46.323Z,14.63
2017-03-09T12:30:59.887Z,14.55
2017-03-09T12:32:13.933Z,14.56
2017-03-09T12:33:27.532Z,14.68
2017-03-09T12:34:41.146Z,14.68
2017-03-09T12:35:54.599Z,14.68
2017-03-09T12:37:08.494Z,14.78
2017-03-09T12:38:22.794Z,14.81
2017-03-09T12:39:36.323Z,14.85
2017-03-09T12:40:49.918Z,14.96
2017-03-09T12:42:03.677Z,15.02
2017-03-09T12:43:17.115Z,15.02
2017-03-09T12:44:31.081Z,15.11
2017-03-09T12:45:44.682Z,15.17
2017-03-09T12:46:58.561Z,15.1
2017-03-09T12:48:12.094Z,15.12
2017-03-09T12:49:26.019Z,15.26
2017-03-09T12:50:40.054Z,15.35
2017-03-09T12:51:54.459Z,15.5
2017-03-09T12:53:08.708Z,15.69
2017-03-09T12:54:22.313Z,15.72
2017-03-09T12:55:35.853Z,15.7
2017-03-09T12:56:49.815Z,15.69
2017-03-09T12:58:03.322Z,15.75
2017-03-09T12:59:17.555Z,15.85
2017-03-09T13:00:31.064Z,15.87
2017-03-09T13:01:44.700Z,15.87
2017-03-09T13:02:58.278Z,16.02
2017-03-09T13:04:11.852Z,15.88
2017-03-09T13:05:25.343Z,15.98
2017-03-09T13:06:39.314Z,16.05
2017-03-09T13:07:53.666Z,16.09
2017-03-09T13:09:07.158Z,15.94
2017-03-09T13:10:21.174Z,15.99
2017-03-09T13:11:35.505Z,15.99
2017-03-09T13:12:49.016Z,16.02
2017-03-09T13:14:02.557Z,15.99
2017-03-09T13:15:16.920Z,16.08
2017-03-09T13:16:30.926Z,16.12
2017-03-09T13:17:44.464Z,16.16
2017-03-09T13:18:57.964Z,16.21
2017-03-09T13:20:11.513Z,16.22
2017-03-09T13:21:25.256Z,16.21
2017-03-09T13:22:39.630Z,16.36
2017-03-09T13:23:53.487Z,16.36
2017-03-09T13:25:07.431Z,16.43
2017-03-09T13:26:21.099Z,16.54
2017-03-09T13:27:35.308Z,16.68
2017-03-09T13:28:48.759Z,16.77
2017-03-09T13:30:02.274Z,16.73
2017-03-09T13:31:15.783Z,16.86
2017-03-09T13:32:29.372Z,16.82
2017-03-09T13:33:43.023Z,16.84
2017-03-09T13:34:56.905Z,16.83
2017-03-09T13:36:10.845Z,16.73
2017-03-09T13:37:24.910Z,16.79
2017-03-09T13:38:39.242Z,16.89
2017-03-09T13:39:53.512Z,16.98
2017-03-09T13:41:06.974Z,16.97
2017-03-09T13:42:20.469Z,16.91
2017-03-09T13:43:37.371Z,16.86
2017-03-09T13:44:50.824Z,16.91
2017-03-09T13:46:04.334Z,16.82
2017-03-09T13:47:17.815Z,16.92
2017-03-09T13:48:31.284Z,16.79
2017-03-09T13:49:44.805Z,16.77
2017-03-09T13:50:58.341Z,16.62
2017-03-09T13:52:11.805Z,16.55
2017-03-09T13:53:25.276Z,16.58
2017-03-09T13:54:39.890Z,16.59
2017-03-09T13:55:53.377Z,16.65
2017-03-09T13:57:07.233Z,16.57
2017-03-09T13:58:20.751Z,16.51
2017-03-09T13:59:34.707Z,16.5
2017-03-09T14:00:48.449Z,16.47
2017-03-09T14:02:01.944Z,16.41
2017-03-09T14:03:15.828Z,16.37
2017-03-09T14:04:29.702Z,16.39
2017-03-09T14:05:43.396Z,16.5
2017-03-09T14:06:57.565Z,16.47
2017-03-09T14:08:11.006Z,16.34
2017-03-09T14:09:24.904Z,16.36
2017-03-09T14:10:38.416Z,16.29
2017-03-09T14:11:51.835Z,16.29
2017-03-09T14:13:05.624Z,16.34
2017-03-09T14:14:19.572Z,16.37
2017-03-09T14:15:52.320Z,16.49
2017-03-09T14:17:05.748Z,16.44
2017-03-09T14:18:19.232Z,16.61
2017-03-09T14:19:33.520Z,16.59
2017-03-09T14:20:47.509Z,16.43
2017-03-09T14:22:00.967Z,16.5
2017-03-09T14:23:14.536Z,16.49
2017-03-09T14:24:28.049Z,16.39
2017-03-09T14:25:41.486Z,16.25
2017-03-09T14:26:55.074Z,16.22
2017-03-09T14:28:09.801Z,16.18
2017-03-09T14:29:23.748Z,16.24
2017-03-09T14:30:37.469Z,16.21
2017-03-09T14:31:51.046Z,16.24
2017-03-09T14:33:04.512Z,16.24
2017-03-09T14:34:17.961Z,16.12
2017-03-09T14:35:32.044Z,16.18
2017-03-09T14:36:45.618Z,16.12
2017-03-09T14:37:59.118Z,16.02
2017-03-09T14:39:12.602Z,16.17
2017-03-09T14:40:26.064Z,16.22
2017-03-09T14:41:39.627Z,16.18
2017-03-09T14:42:53.228Z,16.21
2017-03-09T14:44:07.167Z,16.17
2017-03-09T14:45:20.697Z,16.18
2017-03-09T14:49:04.372Z,16.26
2017-03-09T14:50:17.989Z,16.24
2017-03-09T14:51:32.424Z,16.26
2017-03-09T14:52:46.754Z,16.21
2017-03-09T14:54:01.008Z,16.18
2017-03-09T14:55:14.945Z,16.22
2017-03-09T14:56:28.928Z,16.21
2017-03-09T14:57:42.460Z,16.22
2017-03-09T14:59:40.646Z,16.24
2017-03-09T15:00:54.181Z,16.25
2017-03-09T15:02:09.896Z,16.36
2017-03-09T15:03:23.381Z,16.41
2017-03-09T15:04:37.283Z,16.37
2017-03-09T15:05:50.826Z,16.22
2017-03-09T15:07:04.762Z,16.25
2017-03-09T15:08:18.233Z,16.25
2017-03-09T15:09:31.774Z,16.28
2017-03-09T15:10:45.366Z,16.21
2017-03-09T15:11:59.419Z,16.32
2017-03-09T15:13:13.125Z,16.34
2017-03-09T15:14:26.716Z,16.39
2017-03-09T15:15:40.817Z,16.47
2017-03-09T15:16:54.784Z,16.68
2017-03-09T15:18:08.257Z,16.59
2017-03-09T15:19:21.736Z,16.72
2017-03-09T15:20:35.300Z,16.69
2017-03-09T15:21:49.245Z,16.89
2017-03-09T15:23:02.809Z,16.89
2017-03-09T15:24:16.294Z,16.92
2017-03-09T15:25:29.792Z,16.8
2017-03-09T15:26:43.370Z,16.69
2017-03-09T15:27:56.855Z,16.5
2017-03-09T15:29:53.061Z,16.37
2017-03-09T15:31:06.532Z,16.24
2017-03-09T15:32:20.853Z,16.18
2017-03-09T15:33:34.353Z,16.22
2017-03-09T15:34:47.830Z,16.18
2017-03-09T15:36:01.765Z,16.1
2017-03-09T15:37:15.310Z,16.05
2017-03-09T15:38:28.753Z,15.99
2017-03-09T15:39:42.625Z,15.98
2017-03-09T15:40:56.117Z,15.87
2017-03-09T15:42:10.020Z,15.85
2017-03-09T15:43:39.593Z,15.9
2017-03-09T15:44:58.057Z,15.78
2017-03-09T15:46:21.752Z,15.87
2017-03-09T15:47:46.310Z,15.87
2017-03-09T15:49:09.679Z,15.8
2017-03-09T15:50:29.244Z,15.8
2017-03-09T15:51:43.141Z,15.84
2017-03-09T15:52:56.985Z,15.99
2017-03-09T15:54:11.120Z,15.87
2017-03-09T15:55:50.727Z,16.02
2017-03-09T15:57:04.280Z,16.02
2017-03-09T15:58:17.882Z,16.02
2017-03-09T15:59:31.469Z,16.05
2017-03-09T16:00:44.936Z,16.13
2017-03-09T16:01:58.807Z,16.03
2017-03-09T16:03:12.900Z,16.05
2017-03-09T16:04:28.173Z,16.02
2017-03-09T16:05:42.144Z,16.02
2017-03-09T16:06:56.672Z,16.1
2017-03-09T16:08:10.960Z,16.03
2017-03-09T16:09:24.470Z,16
2017-03-09T16:10:38.297Z,15.99
2017-03-09T16:11:51.795Z,15.96
2017-03-09T16:13:05.546Z,15.98
2017-03-09T16:14:20.115Z,15.94
2017-03-09T16:15:33.616Z,15.99
2017-03-09T16:16:47.378Z,15.92
2017-03-09T16:18:00.825Z,15.92
2017-03-09T16:19:14.296Z,15.98
2017-03-09T16:20:30.419Z,15.88
2017-03-09T16:21:43.912Z,15.94
2017-03-09T16:22:57.815Z,15.92
2017-03-09T16:24:11.253Z,15.99
2017-03-09T16:25:25.276Z,16
2017-03-09T16:26:39.222Z,16.02
2017-03-09T16:27:52.701Z,15.98